Airport ID:KJTC
Update Time (UTC):26/10/2021 02:39
Wind Speed (Knots):4
Wind Direction (Magnetic):100
Temperature (°C):15
Dew Point (°C):2
Humidity (%):42
Altimeter (inHg):30.04
Density Altitude (Feet):8600
Visibility:10+
Clouds (Hundreds of feet):CLR
Present Weather:
METAR:METAR KJTC 260235Z AUTO 12006KT 10SM CLR 15/02 A3005 RMK AO2

The data displayed is for advisory purposes only and is not to be used for flight planning or operations.